Wanyuan, China
Current Conditions -  °F | °C
As of 11:00 AM on Saturday 25 Oct 2014 (Local Time) from ZLXY Reporting Station
Haze Haze  
Wind Chill: 68°   Ceiling: Unl
Heat Index: 68°   Visibility: 1.7mi
Dew Point: 52°   Wind: 2mph
Humidity: 56%   Direction: NA
Pressure: 30"   Gusts: NA
Location:  32.07°N, 108.03°E
Report Text: ZLXY 250300Z VRB01MPS 2800 HZ NSC 20/11 Q1016 BECMG TL04003000
Loading
Personal Weather Stations






























Interactive Weather Map
Tropical Storm Tracking
New forecast layout! Learn more

10-Day Weather Forecast

Advertisements
Track Severe Weather on mobile